sensor_id;sensor_type;location;lat;lon;timestamp;P1;durP1;ratioP1;P2;durP2;ratioP2
38089;SDS011;23904;52.322;10.232;2022-12-01T00:01:11;71.97;;;36.63;;
38089;SDS011;23904;52.322;10.232;2022-12-01T00:03:38;79.25;;;41.15;;
38089;SDS011;23904;52.322;10.232;2022-12-01T00:08:41;67.55;;;37.53;;
38089;SDS011;23904;52.322;10.232;2022-12-01T00:11:31;69.95;;;38.67;;
38089;SDS011;23904;52.322;10.232;2022-12-01T00:13:58;69.60;;;37.00;;
38089;SDS011;23904;52.322;10.232;2022-12-01T00:16:24;78.68;;;39.42;;
38089;SDS011;23904;52.322;10.232;2022-12-01T00:18:51;75.22;;;40.10;;
38089;SDS011;23904;52.322;10.232;2022-12-01T00:21:18;80.38;;;41.70;;
38089;SDS011;23904;52.322;10.232;2022-12-01T00:23:46;81.30;;;42.30;;
38089;SDS011;23904;52.322;10.232;2022-12-01T00:26:15;73.93;;;40.92;;
38089;SDS011;23904;52.322;10.232;2022-12-01T00:28:43;74.82;;;39.17;;
38089;SDS011;23904;52.322;10.232;2022-12-01T00:31:09;82.25;;;41.47;;
38089;SDS011;23904;52.322;10.232;2022-12-01T00:33:36;76.95;;;39.22;;
38089;SDS011;23904;52.322;10.232;2022-12-01T00:36:03;80.63;;;42.40;;
38089;SDS011;23904;52.322;10.232;2022-12-01T00:38:30;79.40;;;41.38;;
38089;SDS011;23904;52.322;10.232;2022-12-01T00:40:56;80.40;;;41.33;;
38089;SDS011;23904;52.322;10.232;2022-12-01T00:43:21;80.45;;;42.55;;
38089;SDS011;23904;52.322;10.232;2022-12-01T00:45:48;82.70;;;41.63;;
38089;SDS011;23904;52.322;10.232;2022-12-01T00:48:14;75.38;;;40.63;;
38089;SDS011;23904;52.322;10.232;2022-12-01T00:50:40;103.80;;;51.17;;
38089;SDS011;23904;52.322;10.232;2022-12-01T00:53:07;102.00;;;51.60;;
38089;SDS011;23904;52.322;10.232;2022-12-01T00:55:32;109.72;;;54.72;;
38089;SDS011;23904;52.322;10.232;2022-12-01T00:57:58;114.72;;;53.67;;
38089;SDS011;23904;52.322;10.232;2022-12-01T01:00:24;115.28;;;56.90;;
38089;SDS011;23904;52.322;10.232;2022-12-01T01:02:50;123.60;;;56.67;;
38089;SDS011;23904;52.322;10.232;2022-12-01T01:05:16;119.40;;;55.17;;
38089;SDS011;23904;52.322;10.232;2022-12-01T01:07:41;119.22;;;55.08;;
38089;SDS011;23904;52.322;10.232;2022-12-01T01:10:07;113.22;;;53.03;;
38089;SDS011;23904;52.322;10.232;2022-12-01T01:12:33;115.40;;;52.17;;
38089;SDS011;23904;52.322;10.232;2022-12-01T01:14:59;118.07;;;53.88;;
38089;SDS011;23904;52.322;10.232;2022-12-01T01:17:25;116.97;;;52.88;;
38089;SDS011;23904;52.322;10.232;2022-12-01T01:19:53;121.85;;;52.42;;
38089;SDS011;23904;52.322;10.232;2022-12-01T01:22:19;121.97;;;55.28;;
38089;SDS011;23904;52.322;10.232;2022-12-01T01:24:45;121.03;;;54.72;;
38089;SDS011;23904;52.322;10.232;2022-12-01T01:27:10;121.40;;;54.67;;
38089;SDS011;23904;52.322;10.232;2022-12-01T01:29:36;114.22;;;52.67;;
38089;SDS011;23904;52.322;10.232;2022-12-01T01:32:01;125.38;;;53.85;;
38089;SDS011;23904;52.322;10.232;2022-12-01T01:34:28;121.10;;;53.53;;
38089;SDS011;23904;52.322;10.232;2022-12-01T01:36:54;119.13;;;53.60;;
38089;SDS011;23904;52.322;10.232;2022-12-01T01:39:19;139.05;;;58.13;;
38089;SDS011;23904;52.322;10.232;2022-12-01T01:41:45;120.68;;;54.10;;
38089;SDS011;23904;52.322;10.232;2022-12-01T01:47:12;132.88;;;56.10;;
38089;SDS011;23904;52.322;10.232;2022-12-01T01:49:38;134.25;;;56.47;;
38089;SDS011;23904;52.322;10.232;2022-12-01T01:52:05;132.35;;;55.08;;
38089;SDS011;23904;52.322;10.232;2022-12-01T01:54:32;139.13;;;58.38;;
38089;SDS011;23904;52.322;10.232;2022-12-01T01:57:02;123.82;;;54.92;;
38089;SDS011;23904;52.322;10.232;2022-12-01T01:59:33;122.20;;;52.45;;
38089;SDS011;23904;52.322;10.232;2022-12-01T02:02:07;125.13;;;54.47;;
38089;SDS011;23904;52.322;10.232;2022-12-01T02:04:36;114.53;;;52.28;;
38089;SDS011;23904;52.322;10.232;2022-12-01T02:07:05;112.75;;;47.78;;
38089;SDS011;23904;52.322;10.232;2022-12-01T02:09:34;114.50;;;48.92;;
38089;SDS011;23904;52.322;10.232;2022-12-01T02:12:02;113.65;;;50.10;;
38089;SDS011;23904;52.322;10.232;2022-12-01T02:21:03;113.85;;;48.75;;
38089;SDS011;23904;52.322;10.232;2022-12-01T02:35:31;109.15;;;43.88;;
38089;SDS011;23904;52.322;10.232;2022-12-01T02:41:29;110.13;;;45.80;;
38089;SDS011;23904;52.322;10.232;2022-12-01T02:46:51;107.32;;;45.25;;
38089;SDS011;23904;52.322;10.232;2022-12-01T02:49:50;112.95;;;44.65;;
38089;SDS011;23904;52.322;10.232;2022-12-01T02:52:19;118.28;;;45.83;;
38089;SDS011;23904;52.322;10.232;2022-12-01T02:54:48;112.90;;;46.20;;
38089;SDS011;23904;52.322;10.232;2022-12-01T02:57:15;116.28;;;44.38;;
38089;SDS011;23904;52.322;10.232;2022-12-01T02:59:42;111.43;;;45.10;;
38089;SDS011;23904;52.322;10.232;2022-12-01T03:02:21;117.70;;;45.83;;
38089;SDS011;23904;52.322;10.232;2022-12-01T03:05:26;126.87;;;48.90;;
38089;SDS011;23904;52.322;10.232;2022-12-01T03:08:12;114.72;;;45.78;;
38089;SDS011;23904;52.322;10.232;2022-12-01T03:10:51;117.60;;;46.35;;
38089;SDS011;23904;52.322;10.232;2022-12-01T03:22:20;93.47;;;35.92;;
38089;SDS011;23904;52.322;10.232;2022-12-01T03:24:53;119.75;;;46.40;;
38089;SDS011;23904;52.322;10.232;2022-12-01T03:27:23;114.07;;;45.80;;
38089;SDS011;23904;52.322;10.232;2022-12-01T03:29:54;125.80;;;47.80;;
38089;SDS011;23904;52.322;10.232;2022-12-01T03:35:03;120.60;;;46.15;;
38089;SDS011;23904;52.322;10.232;2022-12-01T03:37:42;121.07;;;46.55;;
38089;SDS011;23904;52.322;10.232;2022-12-01T03:40:16;117.35;;;45.97;;
38089;SDS011;23904;52.322;10.232;2022-12-01T03:42:48;102.43;;;44.08;;
38089;SDS011;23904;52.322;10.232;2022-12-01T03:45:50;105.03;;;43.75;;
38089;SDS011;23904;52.322;10.232;2022-12-01T03:48:43;110.50;;;43.95;;
38089;SDS011;23904;52.322;10.232;2022-12-01T03:51:14;101.85;;;42.25;;
38089;SDS011;23904;52.322;10.232;2022-12-01T03:53:54;105.93;;;41.97;;
38089;SDS011;23904;52.322;10.232;2022-12-01T03:56:40;105.82;;;41.63;;
38089;SDS011;23904;52.322;10.232;2022-12-01T03:59:18;108.03;;;44.80;;
38089;SDS011;23904;52.322;10.232;2022-12-01T04:01:47;111.20;;;44.63;;
38089;SDS011;23904;52.322;10.232;2022-12-01T04:04:13;109.10;;;43.28;;
38089;SDS011;23904;52.322;10.232;2022-12-01T04:06:42;112.82;;;46.50;;
38089;SDS011;23904;52.322;10.232;2022-12-01T04:09:13;108.03;;;43.47;;
38089;SDS011;23904;52.322;10.232;2022-12-01T04:11:38;125.78;;;46.50;;
38089;SDS011;23904;52.322;10.232;2022-12-01T04:14:23;103.82;;;41.50;;
38089;SDS011;23904;52.322;10.232;2022-12-01T04:16:48;98.22;;;40.28;;
38089;SDS011;23904;52.322;10.232;2022-12-01T04:19:14;106.30;;;41.63;;
38089;SDS011;23904;52.322;10.232;2022-12-01T04:21:40;108.43;;;42.40;;
38089;SDS011;23904;52.322;10.232;2022-12-01T04:24:05;106.75;;;40.83;;
38089;SDS011;23904;52.322;10.232;2022-12-01T04:26:33;100.90;;;39.47;;
38089;SDS011;23904;52.322;10.232;2022-12-01T04:29:02;99.75;;;39.45;;
38089;SDS011;23904;52.322;10.232;2022-12-01T04:31:31;105.90;;;43.25;;
38089;SDS011;23904;52.322;10.232;2022-12-01T04:33:57;113.55;;;43.67;;
38089;SDS011;23904;52.322;10.232;2022-12-01T04:36:24;116.18;;;45.33;;
38089;SDS011;23904;52.322;10.232;2022-12-01T04:38:51;114.30;;;46.65;;
38089;SDS011;23904;52.322;10.232;2022-12-01T04:41:17;117.47;;;43.90;;
38089;SDS011;23904;52.322;10.232;2022-12-01T04:43:42;105.63;;;43.28;;
38089;SDS011;23904;52.322;10.232;2022-12-01T04:46:08;105.68;;;44.13;;
38089;SDS011;23904;52.322;10.232;2022-12-01T04:48:35;109.15;;;41.75;;
38089;SDS011;23904;52.322;10.232;2022-12-01T04:51:03;114.40;;;42.45;;
38089;SDS011;23904;52.322;10.232;2022-12-01T04:53:31;111.72;;;42.72;;
38089;SDS011;23904;52.322;10.232;2022-12-01T04:55:58;115.53;;;44.13;;
38089;SDS011;23904;52.322;10.232;2022-12-01T04:58:25;113.80;;;43.22;;
38089;SDS011;23904;52.322;10.232;2022-12-01T05:00:52;111.45;;;41.28;;
38089;SDS011;23904;52.322;10.232;2022-12-01T05:03:18;104.60;;;43.08;;
38089;SDS011;23904;52.322;10.232;2022-12-01T05:05:44;104.80;;;41.58;;
38089;SDS011;23904;52.322;10.232;2022-12-01T05:08:10;114.93;;;44.33;;
38089;SDS011;23904;52.322;10.232;2022-12-01T05:10:36;113.55;;;40.83;;
38089;SDS011;23904;52.322;10.232;2022-12-01T05:13:03;100.43;;;39.78;;
38089;SDS011;23904;52.322;10.232;2022-12-01T05:15:30;101.55;;;39.90;;
38089;SDS011;23904;52.322;10.232;2022-12-01T05:17:55;102.57;;;39.53;;
38089;SDS011;23904;52.322;10.232;2022-12-01T05:20:22;97.72;;;39.92;;
38089;SDS011;23904;52.322;10.232;2022-12-01T05:23:08;90.53;;;37.92;;
38089;SDS011;23904;52.322;10.232;2022-12-01T05:25:33;93.38;;;37.65;;
38089;SDS011;23904;52.322;10.232;2022-12-01T05:28:01;94.93;;;37.45;;
38089;SDS011;23904;52.322;10.232;2022-12-01T05:30:31;95.47;;;37.65;;
38089;SDS011;23904;52.322;10.232;2022-12-01T05:32:57;91.43;;;37.05;;
38089;SDS011;23904;52.322;10.232;2022-12-01T05:35:22;95.70;;;36.22;;
38089;SDS011;23904;52.322;10.232;2022-12-01T05:37:48;93.65;;;38.13;;
38089;SDS011;23904;52.322;10.232;2022-12-01T05:40:14;87.93;;;35.05;;
38089;SDS011;23904;52.322;10.232;2022-12-01T05:42:39;83.50;;;34.95;;
38089;SDS011;23904;52.322;10.232;2022-12-01T05:45:05;96.35;;;38.08;;
38089;SDS011;23904;52.322;10.232;2022-12-01T05:47:31;87.68;;;37.08;;
38089;SDS011;23904;52.322;10.232;2022-12-01T05:49:57;95.55;;;37.80;;
38089;SDS011;23904;52.322;10.232;2022-12-01T05:52:23;99.70;;;38.90;;
38089;SDS011;23904;52.322;10.232;2022-12-01T05:54:48;108.30;;;39.42;;
38089;SDS011;23904;52.322;10.232;2022-12-01T05:57:14;98.88;;;39.15;;
38089;SDS011;23904;52.322;10.232;2022-12-01T05:59:39;104.25;;;39.33;;
38089;SDS011;23904;52.322;10.232;2022-12-01T06:02:05;97.63;;;37.42;;
38089;SDS011;23904;52.322;10.232;2022-12-01T06:04:31;95.10;;;38.65;;
38089;SDS011;23904;52.322;10.232;2022-12-01T06:06:57;115.22;;;39.00;;
38089;SDS011;23904;52.322;10.232;2022-12-01T06:09:23;96.10;;;38.53;;
38089;SDS011;23904;52.322;10.232;2022-12-01T06:11:49;105.22;;;39.95;;
38089;SDS011;23904;52.322;10.232;2022-12-01T06:14:14;98.82;;;38.35;;
38089;SDS011;23904;52.322;10.232;2022-12-01T06:16:40;96.53;;;37.28;;
38089;SDS011;23904;52.322;10.232;2022-12-01T06:19:06;94.82;;;37.22;;
38089;SDS011;23904;52.322;10.232;2022-12-01T06:21:31;98.85;;;38.42;;
38089;SDS011;23904;52.322;10.232;2022-12-01T06:23:57;98.30;;;37.75;;
38089;SDS011;23904;52.322;10.232;2022-12-01T06:26:22;110.07;;;39.78;;
38089;SDS011;23904;52.322;10.232;2022-12-01T06:28:48;117.00;;;41.92;;
38089;SDS011;23904;52.322;10.232;2022-12-01T06:31:14;115.38;;;41.28;;
38089;SDS011;23904;52.322;10.232;2022-12-01T06:33:39;110.32;;;39.65;;
38089;SDS011;23904;52.322;10.232;2022-12-01T06:36:06;104.60;;;38.92;;
38089;SDS011;23904;52.322;10.232;2022-12-01T06:38:33;107.75;;;38.17;;
38089;SDS011;23904;52.322;10.232;2022-12-01T06:41:00;110.78;;;40.75;;
38089;SDS011;23904;52.322;10.232;2022-12-01T06:43:27;117.20;;;41.47;;
38089;SDS011;23904;52.322;10.232;2022-12-01T06:45:53;107.50;;;38.85;;
38089;SDS011;23904;52.322;10.232;2022-12-01T06:48:19;98.72;;;38.42;;
38089;SDS011;23904;52.322;10.232;2022-12-01T06:50:44;102.25;;;38.30;;
38089;SDS011;23904;52.322;10.232;2022-12-01T06:53:10;100.45;;;39.70;;
38089;SDS011;23904;52.322;10.232;2022-12-01T06:55:36;107.68;;;40.08;;
38089;SDS011;23904;52.322;10.232;2022-12-01T06:58:02;105.07;;;36.88;;
38089;SDS011;23904;52.322;10.232;2022-12-01T07:00:29;111.63;;;40.17;;
38089;SDS011;23904;52.322;10.232;2022-12-01T07:02:55;108.28;;;38.85;;
38089;SDS011;23904;52.322;10.232;2022-12-01T07:05:20;111.20;;;38.13;;
38089;SDS011;23904;52.322;10.232;2022-12-01T07:07:46;113.10;;;41.92;;
38089;SDS011;23904;52.322;10.232;2022-12-01T07:10:12;118.85;;;40.80;;
38089;SDS011;23904;52.322;10.232;2022-12-01T07:12:38;120.38;;;40.00;;
38089;SDS011;23904;52.322;10.232;2022-12-01T07:15:05;118.20;;;41.55;;
38089;SDS011;23904;52.322;10.232;2022-12-01T07:17:33;113.68;;;39.70;;
38089;SDS011;23904;52.322;10.232;2022-12-01T07:19:59;117.63;;;40.92;;
38089;SDS011;23904;52.322;10.232;2022-12-01T07:22:26;105.57;;;38.17;;
38089;SDS011;23904;52.322;10.232;2022-12-01T07:24:52;120.18;;;41.35;;
38089;SDS011;23904;52.322;10.232;2022-12-01T07:27:18;103.85;;;37.33;;
38089;SDS011;23904;52.322;10.232;2022-12-01T07:29:44;105.50;;;38.50;;
38089;SDS011;23904;52.322;10.232;2022-12-01T07:32:09;111.80;;;38.78;;
38089;SDS011;23904;52.322;10.232;2022-12-01T07:34:35;108.82;;;39.58;;
38089;SDS011;23904;52.322;10.232;2022-12-01T07:37:00;110.97;;;38.35;;
38089;SDS011;23904;52.322;10.232;2022-12-01T07:39:26;102.40;;;36.88;;
38089;SDS011;23904;52.322;10.232;2022-12-01T07:41:52;104.78;;;35.97;;
38089;SDS011;23904;52.322;10.232;2022-12-01T07:44:18;112.05;;;36.80;;
38089;SDS011;23904;52.322;10.232;2022-12-01T07:46:43;101.60;;;37.08;;
38089;SDS011;23904;52.322;10.232;2022-12-01T07:49:11;100.90;;;35.00;;
38089;SDS011;23904;52.322;10.232;2022-12-01T07:51:41;110.55;;;39.95;;
38089;SDS011;23904;52.322;10.232;2022-12-01T07:54:09;105.38;;;37.53;;
38089;SDS011;23904;52.322;10.232;2022-12-01T07:56:39;98.65;;;36.13;;
38089;SDS011;23904;52.322;10.232;2022-12-01T07:59:06;96.25;;;38.22;;
38089;SDS011;23904;52.322;10.232;2022-12-01T08:01:32;102.60;;;37.33;;
38089;SDS011;23904;52.322;10.232;2022-12-01T08:03:59;95.10;;;35.38;;
38089;SDS011;23904;52.322;10.232;2022-12-01T08:06:25;98.00;;;37.30;;
38089;SDS011;23904;52.322;10.232;2022-12-01T08:08:54;107.75;;;36.13;;
38089;SDS011;23904;52.322;10.232;2022-12-01T08:11:22;96.07;;;35.40;;
38089;SDS011;23904;52.322;10.232;2022-12-01T08:13:50;101.40;;;36.25;;
38089;SDS011;23904;52.322;10.232;2022-12-01T08:16:18;103.57;;;36.10;;
38089;SDS011;23904;52.322;10.232;2022-12-01T08:18:48;95.00;;;34.45;;
38089;SDS011;23904;52.322;10.232;2022-12-01T08:21:15;96.65;;;34.13;;
38089;SDS011;23904;52.322;10.232;2022-12-01T08:23:43;102.03;;;35.33;;
38089;SDS011;23904;52.322;10.232;2022-12-01T08:26:16;100.10;;;36.05;;
38089;SDS011;23904;52.322;10.232;2022-12-01T08:28:44;95.50;;;36.05;;
38089;SDS011;23904;52.322;10.232;2022-12-01T08:31:11;97.55;;;36.53;;
38089;SDS011;23904;52.322;10.232;2022-12-01T08:33:52;95.43;;;34.72;;
38089;SDS011;23904;52.322;10.232;2022-12-01T08:36:19;113.45;;;35.28;;
38089;SDS011;23904;52.322;10.232;2022-12-01T08:38:48;102.97;;;36.15;;
38089;SDS011;23904;52.322;10.232;2022-12-01T08:41:17;100.40;;;34.97;;
38089;SDS011;23904;52.322;10.232;2022-12-01T08:43:43;101.32;;;35.72;;
38089;SDS011;23904;52.322;10.232;2022-12-01T08:46:12;105.25;;;35.35;;
38089;SDS011;23904;52.322;10.232;2022-12-01T08:48:38;102.22;;;35.45;;
38089;SDS011;23904;52.322;10.232;2022-12-01T08:53:42;105.82;;;36.47;;
38089;SDS011;23904;52.322;10.232;2022-12-01T08:58:49;112.10;;;37.67;;
38089;SDS011;23904;52.322;10.232;2022-12-01T09:01:16;109.25;;;35.90;;
38089;SDS011;23904;52.322;10.232;2022-12-01T09:03:43;102.53;;;37.25;;
38089;SDS011;23904;52.322;10.232;2022-12-01T09:06:11;106.30;;;38.38;;
38089;SDS011;23904;52.322;10.232;2022-12-01T09:08:40;119.05;;;37.30;;
38089;SDS011;23904;52.322;10.232;2022-12-01T09:11:08;113.65;;;38.65;;
38089;SDS011;23904;52.322;10.232;2022-12-01T09:13:37;115.10;;;38.58;;
38089;SDS011;23904;52.322;10.232;2022-12-01T09:16:09;113.28;;;39.85;;
38089;SDS011;23904;52.322;10.232;2022-12-01T09:18:40;135.18;;;38.25;;
38089;SDS011;23904;52.322;10.232;2022-12-01T09:21:18;125.95;;;42.03;;
38089;SDS011;23904;52.322;10.232;2022-12-01T09:23:47;115.63;;;39.67;;
38089;SDS011;23904;52.322;10.232;2022-12-01T09:26:15;110.90;;;37.35;;
38089;SDS011;23904;52.322;10.232;2022-12-01T09:28:44;119.60;;;38.97;;
38089;SDS011;23904;52.322;10.232;2022-12-01T09:31:11;120.93;;;38.17;;
38089;SDS011;23904;52.322;10.232;2022-12-01T09:33:39;110.95;;;39.50;;
38089;SDS011;23904;52.322;10.232;2022-12-01T09:36:05;117.18;;;39.45;;
38089;SDS011;23904;52.322;10.232;2022-12-01T09:38:33;121.95;;;40.28;;
38089;SDS011;23904;52.322;10.232;2022-12-01T09:41:01;125.28;;;39.13;;
38089;SDS011;23904;52.322;10.232;2022-12-01T09:43:39;123.50;;;38.38;;
38089;SDS011;23904;52.322;10.232;2022-12-01T09:46:18;114.63;;;37.95;;
38089;SDS011;23904;52.322;10.232;2022-12-01T09:48:57;122.25;;;36.58;;
38089;SDS011;23904;52.322;10.232;2022-12-01T09:51:28;101.32;;;36.88;;
38089;SDS011;23904;52.322;10.232;2022-12-01T09:53:58;107.30;;;38.08;;
38089;SDS011;23904;52.322;10.232;2022-12-01T09:56:26;114.55;;;40.25;;
38089;SDS011;23904;52.322;10.232;2022-12-01T09:58:58;117.70;;;38.55;;
38089;SDS011;23904;52.322;10.232;2022-12-01T10:01:31;104.90;;;38.67;;
38089;SDS011;23904;52.322;10.232;2022-12-01T10:07:03;109.88;;;36.95;;
38089;SDS011;23904;52.322;10.232;2022-12-01T10:09:38;115.75;;;36.90;;
38089;SDS011;23904;52.322;10.232;2022-12-01T10:12:17;112.53;;;37.92;;
38089;SDS011;23904;52.322;10.232;2022-12-01T10:14:47;114.05;;;38.33;;
38089;SDS011;23904;52.322;10.232;2022-12-01T10:17:22;115.43;;;38.10;;
38089;SDS011;23904;52.322;10.232;2022-12-01T10:20:00;111.60;;;37.80;;
38089;SDS011;23904;52.322;10.232;2022-12-01T10:22:51;115.88;;;37.28;;
38089;SDS011;23904;52.322;10.232;2022-12-01T10:31:20;107.78;;;34.47;;
38089;SDS011;23904;52.322;10.232;2022-12-01T10:34:32;97.82;;;38.83;;
38089;SDS011;23904;52.322;10.232;2022-12-01T10:39:28;105.88;;;34.47;;
38089;SDS011;23904;52.322;10.232;2022-12-01T10:42:05;104.82;;;35.28;;
38089;SDS011;23904;52.322;10.232;2022-12-01T10:44:38;98.15;;;34.40;;
38089;SDS011;23904;52.322;10.232;2022-12-01T10:47:10;99.47;;;33.75;;
38089;SDS011;23904;52.322;10.232;2022-12-01T10:49:45;109.22;;;36.75;;
38089;SDS011;23904;52.322;10.232;2022-12-01T10:55:23;99.00;;;33.65;;
38089;SDS011;23904;52.322;10.232;2022-12-01T10:58:05;100.20;;;33.63;;
38089;SDS011;23904;52.322;10.232;2022-12-01T11:00:40;108.15;;;35.35;;
38089;SDS011;23904;52.322;10.232;2022-12-01T11:03:18;101.85;;;34.35;;
38089;SDS011;23904;52.322;10.232;2022-12-01T11:05:51;100.43;;;35.20;;
38089;SDS011;23904;52.322;10.232;2022-12-01T11:08:22;101.10;;;36.08;;
38089;SDS011;23904;52.322;10.232;2022-12-01T11:11:01;96.43;;;33.97;;
38089;SDS011;23904;52.322;10.232;2022-12-01T11:13:28;102.07;;;35.67;;
38089;SDS011;23904;52.322;10.232;2022-12-01T11:16:00;95.30;;;34.22;;
38089;SDS011;23904;52.322;10.232;2022-12-01T11:18:35;93.93;;;35.63;;
38089;SDS011;23904;52.322;10.232;2022-12-01T11:21:07;90.13;;;34.17;;
38089;SDS011;23904;52.322;10.232;2022-12-01T11:23:52;93.22;;;34.92;;
38089;SDS011;23904;52.322;10.232;2022-12-01T11:26:23;103.95;;;34.72;;
38089;SDS011;23904;52.322;10.232;2022-12-01T11:28:59;101.00;;;36.40;;
38089;SDS011;23904;52.322;10.232;2022-12-01T11:31:42;97.93;;;35.22;;
38089;SDS011;23904;52.322;10.232;2022-12-01T11:34:45;102.45;;;34.85;;
38089;SDS011;23904;52.322;10.232;2022-12-01T11:37:06;88.38;;;31.58;;
38089;SDS011;23904;52.322;10.232;2022-12-01T11:39:41;99.35;;;34.45;;
38089;SDS011;23904;52.322;10.232;2022-12-01T11:44:37;102.30;;;35.63;;
38089;SDS011;23904;52.322;10.232;2022-12-01T11:47:56;108.75;;;38.03;;
38089;SDS011;23904;52.322;10.232;2022-12-01T11:49:58;99.40;;;35.22;;
38089;SDS011;23904;52.322;10.232;2022-12-01T11:52:33;101.57;;;35.25;;
38089;SDS011;23904;52.322;10.232;2022-12-01T11:57:38;97.95;;;35.33;;
38089;SDS011;23904;52.322;10.232;2022-12-01T12:00:17;102.15;;;35.55;;
38089;SDS011;23904;52.322;10.232;2022-12-01T12:08:54;109.40;;;34.88;;
38089;SDS011;23904;52.322;10.232;2022-12-01T12:11:43;100.40;;;34.55;;
38089;SDS011;23904;52.322;10.232;2022-12-01T12:14:30;93.65;;;33.05;;
38089;SDS011;23904;52.322;10.232;2022-12-01T12:25:19;88.50;;;31.27;;
38089;SDS011;23904;52.322;10.232;2022-12-01T12:30:36;91.30;;;33.83;;
38089;SDS011;23904;52.322;10.232;2022-12-01T12:39:05;92.75;;;33.35;;
38089;SDS011;23904;52.322;10.232;2022-12-01T12:41:54;100.18;;;35.47;;
38089;SDS011;23904;52.322;10.232;2022-12-01T12:47:21;107.53;;;38.65;;
38089;SDS011;23904;52.322;10.232;2022-12-01T12:50:16;87.07;;;31.55;;
38089;SDS011;23904;52.322;10.232;2022-12-01T12:52:53;91.38;;;33.92;;
38089;SDS011;23904;52.322;10.232;2022-12-01T12:55:38;92.03;;;33.78;;
38089;SDS011;23904;52.322;10.232;2022-12-01T12:58:15;88.55;;;33.00;;
38089;SDS011;23904;52.322;10.232;2022-12-01T13:00:52;86.90;;;29.40;;
38089;SDS011;23904;52.322;10.232;2022-12-01T13:06:24;87.45;;;31.70;;
38089;SDS011;23904;52.322;10.232;2022-12-01T13:09:11;94.13;;;31.67;;
38089;SDS011;23904;52.322;10.232;2022-12-01T13:14:44;85.70;;;30.35;;
38089;SDS011;23904;52.322;10.232;2022-12-01T13:17:21;84.57;;;29.25;;
38089;SDS011;23904;52.322;10.232;2022-12-01T13:20:18;86.22;;;32.13;;
38089;SDS011;23904;52.322;10.232;2022-12-01T13:22:51;91.22;;;31.33;;
38089;SDS011;23904;52.322;10.232;2022-12-01T13:25:22;95.47;;;31.10;;
38089;SDS011;23904;52.322;10.232;2022-12-01T13:27:56;87.97;;;30.73;;
38089;SDS011;23904;52.322;10.232;2022-12-01T13:30:24;92.50;;;32.10;;
38089;SDS011;23904;52.322;10.232;2022-12-01T13:33:04;94.30;;;32.15;;
38089;SDS011;23904;52.322;10.232;2022-12-01T13:35:35;100.15;;;34.22;;
38089;SDS011;23904;52.322;10.232;2022-12-01T13:44:06;99.75;;;34.38;;
38089;SDS011;23904;52.322;10.232;2022-12-01T13:55:29;110.07;;;37.33;;
38089;SDS011;23904;52.322;10.232;2022-12-01T13:57:41;113.63;;;37.97;;
38089;SDS011;23904;52.322;10.232;2022-12-01T14:00:28;107.20;;;37.50;;
38089;SDS011;23904;52.322;10.232;2022-12-01T14:08:15;103.63;;;35.67;;
38089;SDS011;23904;52.322;10.232;2022-12-01T14:13:27;103.50;;;35.85;;
38089;SDS011;23904;52.322;10.232;2022-12-01T14:15:58;121.50;;;39.15;;
38089;SDS011;23904;52.322;10.232;2022-12-01T14:21:02;116.60;;;36.92;;
38089;SDS011;23904;52.322;10.232;2022-12-01T14:23:32;111.07;;;37.53;;
38089;SDS011;23904;52.322;10.232;2022-12-01T14:26:10;104.40;;;35.40;;
38089;SDS011;23904;52.322;10.232;2022-12-01T14:33:58;130.95;;;40.50;;
38089;SDS011;23904;52.322;10.232;2022-12-01T14:39:20;131.55;;;41.30;;
38089;SDS011;23904;52.322;10.232;2022-12-01T14:41:55;122.20;;;41.10;;
38089;SDS011;23904;52.322;10.232;2022-12-01T14:47:04;125.88;;;42.45;;
38089;SDS011;23904;52.322;10.232;2022-12-01T14:55:03;134.32;;;41.00;;
38089;SDS011;23904;52.322;10.232;2022-12-01T14:57:50;141.05;;;40.85;;
38089;SDS011;23904;52.322;10.232;2022-12-01T15:00:24;145.25;;;42.55;;
38089;SDS011;23904;52.322;10.232;2022-12-01T15:02:54;137.95;;;44.33;;
38089;SDS011;23904;52.322;10.232;2022-12-01T15:05:25;132.63;;;39.20;;
38089;SDS011;23904;52.322;10.232;2022-12-01T15:07:55;137.70;;;42.90;;
38089;SDS011;23904;52.322;10.232;2022-12-01T15:10:24;139.93;;;43.05;;
38089;SDS011;23904;52.322;10.232;2022-12-01T15:12:53;131.35;;;41.72;;
38089;SDS011;23904;52.322;10.232;2022-12-01T15:15:20;134.00;;;40.55;;
38089;SDS011;23904;52.322;10.232;2022-12-01T15:17:50;133.10;;;41.78;;
38089;SDS011;23904;52.322;10.232;2022-12-01T15:20:26;120.80;;;38.88;;
38089;SDS011;23904;52.322;10.232;2022-12-01T15:23:01;126.53;;;39.25;;
38089;SDS011;23904;52.322;10.232;2022-12-01T15:25:39;126.63;;;38.92;;
38089;SDS011;23904;52.322;10.232;2022-12-01T15:28:17;116.65;;;38.22;;
38089;SDS011;23904;52.322;10.232;2022-12-01T15:30:49;128.65;;;40.97;;
38089;SDS011;23904;52.322;10.232;2022-12-01T15:33:28;127.38;;;38.88;;
38089;SDS011;23904;52.322;10.232;2022-12-01T15:35:58;128.25;;;41.03;;
38089;SDS011;23904;52.322;10.232;2022-12-01T15:38:27;142.68;;;40.20;;
38089;SDS011;23904;52.322;10.232;2022-12-01T15:40:59;137.77;;;40.50;;
38089;SDS011;23904;52.322;10.232;2022-12-01T15:43:30;147.55;;;44.83;;
38089;SDS011;23904;52.322;10.232;2022-12-01T15:48:40;139.95;;;43.25;;
38089;SDS011;23904;52.322;10.232;2022-12-01T15:51:25;144.30;;;42.40;;
38089;SDS011;23904;52.322;10.232;2022-12-01T15:53:55;135.07;;;40.15;;
38089;SDS011;23904;52.322;10.232;2022-12-01T15:56:24;148.55;;;40.67;;
38089;SDS011;23904;52.322;10.232;2022-12-01T15:59:07;150.65;;;43.67;;
38089;SDS011;23904;52.322;10.232;2022-12-01T16:01:37;146.60;;;43.85;;
38089;SDS011;23904;52.322;10.232;2022-12-01T16:04:27;141.38;;;45.65;;
38089;SDS011;23904;52.322;10.232;2022-12-01T16:07:03;134.95;;;41.53;;
38089;SDS011;23904;52.322;10.232;2022-12-01T16:09:36;141.85;;;41.83;;
38089;SDS011;23904;52.322;10.232;2022-12-01T16:12:25;143.32;;;42.17;;
38089;SDS011;23904;52.322;10.232;2022-12-01T16:17:25;140.48;;;42.22;;
38089;SDS011;23904;52.322;10.232;2022-12-01T16:22:53;138.75;;;40.83;;
38089;SDS011;23904;52.322;10.232;2022-12-01T16:25:44;139.35;;;44.08;;
38089;SDS011;23904;52.322;10.232;2022-12-01T16:28:21;139.38;;;39.55;;
38089;SDS011;23904;52.322;10.232;2022-12-01T16:30:49;143.55;;;42.90;;
38089;SDS011;23904;52.322;10.232;2022-12-01T16:33:17;138.60;;;44.40;;
38089;SDS011;23904;52.322;10.232;2022-12-01T16:35:47;146.18;;;41.20;;
38089;SDS011;23904;52.322;10.232;2022-12-01T16:38:14;144.93;;;43.42;;
38089;SDS011;23904;52.322;10.232;2022-12-01T16:40:50;144.10;;;44.50;;
38089;SDS011;23904;52.322;10.232;2022-12-01T16:43:21;139.82;;;42.30;;
38089;SDS011;23904;52.322;10.232;2022-12-01T16:45:50;151.75;;;44.20;;
38089;SDS011;23904;52.322;10.232;2022-12-01T16:48:27;134.95;;;42.42;;